createdAt,value
2023-07-24T00:00:48.330Z,4.28
2023-07-24T00:03:14.982Z,3.90
2023-07-24T00:05:41.564Z,3.40
2023-07-24T00:08:08.215Z,3.78
2023-07-24T00:10:34.855Z,3.22
2023-07-24T00:13:02.367Z,3.50
2023-07-24T00:15:29.038Z,3.65
2023-07-24T00:17:55.697Z,3.93
2023-07-24T00:20:22.459Z,3.70
2023-07-24T00:22:49.041Z,3.75
2023-07-24T00:25:15.641Z,4.15
2023-07-24T00:27:42.214Z,3.67
2023-07-24T00:30:09.309Z,3.83
2023-07-24T00:32:35.970Z,3.75
2023-07-24T00:35:02.475Z,3.58
2023-07-24T00:37:28.985Z,3.65
2023-07-24T00:39:55.514Z,3.75
2023-07-24T00:42:22.000Z,3.53
2023-07-24T00:44:48.588Z,3.10
2023-07-24T00:47:15.336Z,3.55
2023-07-24T00:49:42.076Z,4.00
2023-07-24T00:52:09.376Z,4.30
2023-07-24T00:54:36.288Z,4.17
2023-07-24T00:57:04.637Z,4.47
2023-07-24T00:59:31.470Z,4.45
2023-07-24T01:01:58.016Z,4.78
2023-07-24T01:04:24.563Z,4.20
2023-07-24T01:06:51.194Z,3.80
2023-07-24T01:09:17.761Z,3.90
2023-07-24T01:11:49.246Z,4.20
2023-07-24T01:14:33.984Z,4.38
2023-07-24T01:17:01.555Z,4.20
2023-07-24T01:19:31.168Z,4.87
2023-07-24T01:22:26.971Z,4.35
2023-07-24T01:25:20.320Z,3.97
2023-07-24T01:27:47.397Z,4.10
2023-07-24T01:30:16.976Z,4.03
2023-07-24T01:32:43.567Z,4.23
2023-07-24T01:35:10.286Z,4.40
2023-07-24T01:37:40.405Z,4.47
2023-07-24T01:40:11.789Z,4.80
2023-07-24T01:42:39.072Z,4.50
2023-07-24T01:45:06.358Z,5.00
2023-07-24T01:47:33.918Z,5.40
2023-07-24T01:50:00.532Z,5.60
2023-07-24T01:52:27.308Z,5.50
2023-07-24T01:54:53.878Z,6.32
2023-07-24T01:57:20.475Z,6.60
2023-07-24T01:59:47.095Z,5.85
2023-07-24T02:02:13.660Z,5.88
2023-07-24T02:04:40.181Z,6.13
2023-07-24T02:07:06.671Z,6.82
2023-07-24T02:09:33.203Z,5.90
2023-07-24T02:11:59.771Z,6.43
2023-07-24T02:14:27.869Z,6.05
2023-07-24T02:16:54.461Z,6.40
2023-07-24T02:19:21.015Z,5.90
2023-07-24T02:21:47.559Z,6.17
2023-07-24T02:24:14.235Z,6.38
2023-07-24T02:26:40.711Z,6.43
2023-07-24T02:29:07.238Z,6.18
2023-07-24T02:31:35.362Z,6.47
2023-07-24T02:34:01.917Z,5.57
2023-07-24T02:36:28.659Z,5.15
2023-07-24T02:38:55.371Z,4.93
2023-07-24T02:41:21.874Z,5.07
2023-07-24T02:43:48.443Z,5.57
2023-07-24T02:46:14.979Z,4.90
2023-07-24T02:48:41.556Z,5.20
2023-07-24T02:51:08.155Z,5.18
2023-07-24T02:53:34.695Z,5.28
2023-07-24T02:56:03.440Z,5.65
2023-07-24T02:58:30.053Z,4.20
2023-07-24T03:01:04.263Z,5.05
2023-07-24T03:03:30.923Z,5.15
2023-07-24T03:05:57.643Z,5.15
2023-07-24T03:08:24.156Z,5.05
2023-07-24T03:10:50.822Z,4.90
2023-07-24T03:13:17.328Z,5.63
2023-07-24T03:15:43.829Z,4.95
2023-07-24T03:18:10.404Z,5.25
2023-07-24T03:20:37.000Z,5.20
2023-07-24T03:23:03.765Z,4.70
2023-07-24T03:25:32.564Z,5.35
2023-07-24T03:27:59.076Z,5.05
2023-07-24T03:30:25.597Z,5.03
2023-07-24T03:32:52.249Z,5.22
2023-07-24T03:35:18.872Z,5.67
2023-07-24T03:37:45.394Z,7.47
2023-07-24T03:40:12.859Z,6.05
2023-07-24T03:42:39.370Z,6.63
2023-07-24T03:45:06.885Z,6.65
2023-07-24T03:47:33.591Z,7.07
2023-07-24T03:50:00.314Z,6.55
2023-07-24T03:52:27.102Z,6.53
2023-07-24T03:54:53.707Z,6.78
2023-07-24T03:57:20.272Z,5.88
2023-07-24T03:59:46.791Z,7.47
2023-07-24T04:02:13.412Z,6.50
2023-07-24T04:04:39.927Z,6.82
2023-07-24T04:07:06.789Z,6.70
2023-07-24T04:09:33.581Z,6.85
2023-07-24T04:12:00.310Z,7.13
2023-07-24T04:14:26.901Z,7.93
2023-07-24T04:16:53.758Z,7.85
2023-07-24T04:19:20.403Z,7.78
2023-07-24T04:21:46.914Z,7.35
2023-07-24T04:24:13.507Z,8.13
2023-07-24T04:26:41.030Z,9.05
2023-07-24T04:29:08.042Z,9.23
2023-07-24T04:31:34.758Z,8.35
2023-07-24T04:34:01.304Z,9.10
2023-07-24T04:36:28.033Z,9.80
2023-07-24T04:38:54.817Z,9.20
2023-07-24T04:41:21.344Z,9.95
2023-07-24T04:43:47.961Z,9.20
2023-07-24T04:46:14.533Z,10.50
2023-07-24T04:48:41.094Z,10.90
2023-07-24T04:51:07.800Z,9.75
2023-07-24T04:53:34.435Z,10.10
2023-07-24T04:56:01.009Z,10.65
2023-07-24T04:58:27.581Z,11.13
2023-07-24T05:00:53.999Z,10.10
2023-07-24T05:03:21.083Z,11.07
2023-07-24T05:05:56.805Z,9.52
2023-07-24T05:08:24.054Z,10.38
2023-07-24T05:11:00.284Z,8.88
2023-07-24T05:13:27.678Z,11.37
2023-07-24T05:15:54.399Z,9.13
2023-07-24T05:18:21.129Z,9.10
2023-07-24T05:20:48.809Z,9.48
2023-07-24T05:23:15.889Z,8.90
2023-07-24T05:25:42.730Z,8.77
2023-07-24T05:28:10.205Z,9.82
2023-07-24T05:30:36.951Z,10.05
2023-07-24T05:33:03.629Z,9.50
2023-07-24T05:35:30.169Z,10.00
2023-07-24T05:37:56.831Z,9.83
2023-07-24T05:40:23.358Z,10.10
2023-07-24T05:42:49.885Z,9.68
2023-07-24T05:45:16.665Z,9.05
2023-07-24T05:47:43.245Z,10.70
2023-07-24T05:50:10.101Z,13.93
2023-07-24T05:52:36.658Z,10.43
2023-07-24T05:55:04.250Z,11.60
2023-07-24T05:57:30.836Z,11.93
2023-07-24T05:59:57.473Z,14.93
2023-07-24T06:02:24.013Z,11.63
2023-07-24T06:04:50.619Z,11.70
2023-07-24T06:07:17.148Z,11.43
2023-07-24T06:09:43.744Z,11.45
2023-07-24T06:12:10.302Z,19.35
2023-07-24T06:14:36.902Z,9.57
2023-07-24T06:17:03.638Z,8.32
2023-07-24T06:19:30.338Z,10.02
2023-07-24T06:21:57.026Z,8.25
2023-07-24T06:24:24.836Z,9.75
2023-07-24T06:26:51.509Z,10.93
2023-07-24T06:29:18.082Z,11.50
2023-07-24T06:31:44.724Z,10.82
2023-07-24T06:34:11.332Z,11.00
2023-07-24T06:36:37.924Z,11.20
2023-07-24T06:39:04.456Z,11.57
2023-07-24T06:41:31.136Z,13.88
2023-07-24T06:43:57.630Z,10.70
2023-07-24T06:46:24.296Z,10.15
2023-07-24T06:48:50.835Z,12.20
2023-07-24T06:51:17.381Z,14.37
2023-07-24T06:53:43.946Z,8.13
2023-07-24T06:56:10.599Z,8.68
2023-07-24T06:58:37.036Z,8.15
2023-07-24T07:01:07.872Z,8.20
2023-07-24T07:03:37.625Z,8.33
2023-07-24T07:06:04.595Z,7.82
2023-07-24T07:08:31.513Z,7.50
2023-07-24T07:10:58.884Z,7.55
2023-07-24T07:13:25.492Z,7.82
2023-07-24T07:15:52.126Z,7.47
2023-07-24T07:18:19.024Z,7.65
2023-07-24T07:20:50.389Z,9.07
2023-07-24T07:23:17.420Z,8.95
2023-07-24T07:25:46.220Z,8.45
2023-07-24T07:28:13.868Z,9.33
2023-07-24T07:30:42.062Z,9.93
2023-07-24T07:33:09.810Z,8.23
2023-07-24T07:35:37.204Z,8.90
2023-07-24T07:38:04.429Z,8.27
2023-07-24T07:40:31.117Z,8.47
2023-07-24T07:42:58.299Z,9.15
2023-07-24T07:45:25.265Z,7.60
2023-07-24T07:47:54.378Z,8.90
2023-07-24T07:50:21.320Z,8.55
2023-07-24T07:52:52.114Z,8.20
2023-07-24T07:55:19.759Z,10.23
2023-07-24T07:57:46.315Z,8.65
2023-07-24T08:00:13.533Z,8.35
2023-07-24T08:02:42.997Z,8.57
2023-07-24T08:05:17.869Z,9.00
2023-07-24T08:07:46.855Z,7.40
2023-07-24T08:10:16.073Z,7.50
2023-07-24T08:12:43.737Z,8.82
2023-07-24T08:15:10.763Z,8.10
2023-07-24T08:17:37.332Z,9.60
2023-07-24T08:20:04.551Z,9.27
2023-07-24T08:22:31.115Z,9.75
2023-07-24T08:24:57.769Z,8.70
2023-07-24T08:27:24.260Z,9.13
2023-07-24T08:29:54.139Z,10.13
2023-07-24T08:32:21.379Z,12.50
2023-07-24T08:34:48.308Z,11.88
2023-07-24T08:37:14.883Z,14.18
2023-07-24T08:39:42.388Z,14.98
2023-07-24T08:42:10.783Z,15.97
2023-07-24T08:44:38.163Z,15.30
2023-07-24T08:47:07.698Z,14.38
2023-07-24T08:49:35.893Z,14.00
2023-07-24T08:52:02.876Z,11.35
2023-07-24T08:54:31.336Z,10.20
2023-07-24T08:56:57.906Z,10.07
2023-07-24T08:59:24.518Z,9.30
2023-07-24T09:01:51.802Z,9.13
2023-07-24T09:04:18.372Z,8.95
2023-07-24T09:06:46.488Z,9.23
2023-07-24T09:09:17.484Z,8.85
2023-07-24T09:11:51.457Z,9.00
2023-07-24T09:14:25.277Z,7.72
2023-07-24T09:17:12.435Z,8.77
2023-07-24T09:19:39.536Z,8.57
2023-07-24T09:22:16.598Z,9.95
2023-07-24T09:24:56.525Z,11.48
2023-07-24T09:27:27.792Z,11.20
2023-07-24T09:29:55.576Z,9.48
2023-07-24T09:32:27.471Z,9.37
2023-07-24T09:34:57.491Z,9.52
2023-07-24T09:37:27.672Z,9.95
2023-07-24T09:39:54.579Z,8.55
2023-07-24T09:42:52.971Z,8.55
2023-07-24T09:45:26.539Z,9.53
2023-07-24T09:47:59.417Z,7.53
2023-07-24T09:50:29.797Z,7.88
2023-07-24T09:52:58.029Z,7.57
2023-07-24T09:55:30.936Z,6.38
2023-07-24T09:57:59.690Z,6.80
2023-07-24T10:00:26.705Z,6.93
2023-07-24T10:02:53.845Z,6.88
2023-07-24T10:05:20.766Z,7.10
2023-07-24T10:07:48.381Z,6.75
2023-07-24T10:10:16.425Z,7.13
2023-07-24T10:12:43.471Z,5.72
2023-07-24T10:15:10.947Z,6.18
2023-07-24T10:17:41.428Z,7.80
2023-07-24T10:20:11.431Z,8.00
2023-07-24T10:22:42.451Z,8.27
2023-07-24T10:25:12.581Z,6.40
2023-07-24T10:27:50.426Z,7.50
2023-07-24T10:30:33.014Z,6.95
2023-07-24T10:33:20.943Z,7.57
2023-07-24T10:35:55.821Z,7.10
2023-07-24T10:38:36.935Z,8.25
2023-07-24T10:41:07.662Z,6.57
2023-07-24T10:43:59.684Z,6.43
2023-07-24T10:46:41.104Z,7.75
2023-07-24T10:49:09.074Z,6.93
2023-07-24T10:51:38.498Z,6.60
2023-07-24T10:54:06.660Z,6.97
2023-07-24T10:56:33.414Z,9.23
2023-07-24T10:59:06.455Z,7.85
2023-07-24T11:01:34.613Z,11.80
2023-07-24T11:04:02.359Z,11.02
2023-07-24T11:06:29.142Z,9.52
2023-07-24T11:08:58.002Z,10.57
2023-07-24T11:11:32.034Z,10.20
2023-07-24T11:13:59.151Z,17.30
2023-07-24T11:16:25.838Z,12.88
2023-07-24T11:18:56.617Z,12.38
2023-07-24T11:21:24.670Z,9.48
2023-07-24T11:23:53.591Z,11.80
2023-07-24T11:26:22.159Z,12.33
2023-07-24T11:28:49.500Z,8.68
2023-07-24T11:31:16.455Z,6.97
2023-07-24T11:33:44.248Z,7.82
2023-07-24T11:36:11.303Z,8.45
2023-07-24T11:38:39.901Z,6.87
2023-07-24T11:41:06.942Z,9.07
2023-07-24T11:43:33.580Z,12.82
2023-07-24T11:46:00.232Z,7.55
2023-07-24T11:48:26.802Z,10.43
2023-07-24T11:50:58.567Z,9.43
2023-07-24T11:53:30.700Z,8.77
2023-07-24T11:55:59.270Z,9.93
2023-07-24T11:58:30.125Z,9.60
2023-07-24T12:00:57.264Z,9.10
2023-07-24T12:03:27.257Z,7.40
2023-07-24T12:05:54.407Z,14.98
2023-07-24T12:08:24.891Z,8.63
2023-07-24T12:10:51.741Z,8.20
2023-07-24T12:13:20.045Z,7.43
2023-07-24T12:15:48.705Z,6.37
2023-07-24T12:18:16.509Z,7.40
2023-07-24T12:20:43.122Z,7.78
2023-07-24T12:23:09.694Z,8.10
2023-07-24T12:25:36.285Z,10.80
2023-07-24T12:28:02.892Z,9.07
2023-07-24T12:30:29.453Z,6.05
2023-07-24T12:32:56.075Z,7.80
2023-07-24T12:35:22.672Z,8.98
2023-07-24T12:37:49.321Z,8.23
2023-07-24T12:40:15.935Z,7.10
2023-07-24T12:42:42.743Z,7.40
2023-07-24T12:45:09.793Z,7.82
2023-07-24T12:47:36.332Z,6.53
2023-07-24T12:50:05.687Z,6.07
2023-07-24T12:52:34.148Z,12.50
2023-07-24T12:55:02.310Z,6.68
2023-07-24T12:57:29.789Z,6.95
2023-07-24T12:59:56.396Z,7.28
2023-07-24T13:02:23.021Z,8.98
2023-07-24T13:04:49.614Z,8.90
2023-07-24T13:07:16.337Z,6.90
2023-07-24T13:09:43.012Z,7.03
2023-07-24T13:12:10.171Z,7.20
2023-07-24T13:14:38.545Z,5.35
2023-07-24T13:17:06.893Z,5.50
2023-07-24T13:19:33.600Z,6.82
2023-07-24T13:22:00.199Z,6.45
2023-07-24T13:24:26.953Z,5.60
2023-07-24T13:26:53.507Z,6.00
2023-07-24T13:29:20.846Z,7.97
2023-07-24T13:31:52.120Z,6.85
2023-07-24T13:34:20.653Z,9.02
2023-07-24T13:36:50.605Z,9.65
2023-07-24T13:39:18.148Z,13.63
2023-07-24T13:41:44.834Z,6.90
2023-07-24T13:44:11.658Z,16.63
2023-07-24T13:46:40.474Z,8.85
2023-07-24T13:49:07.770Z,6.60
2023-07-24T13:51:34.500Z,7.88
2023-07-24T13:54:02.852Z,12.40
2023-07-24T13:56:32.394Z,10.15
2023-07-24T13:58:59.112Z,11.18
2023-07-24T14:01:25.978Z,13.20
2023-07-24T14:03:52.866Z,10.02
2023-07-24T14:06:19.869Z,8.97
2023-07-24T14:08:46.409Z,8.30
2023-07-24T14:11:12.960Z,8.75
2023-07-24T14:13:39.443Z,7.15
2023-07-24T14:16:06.074Z,7.35
2023-07-24T14:18:32.607Z,8.10
2023-07-24T14:21:00.783Z,9.75
2023-07-24T14:23:27.735Z,7.13
2023-07-24T14:25:54.248Z,6.80
2023-07-24T14:28:20.904Z,9.07
2023-07-24T14:30:48.588Z,7.00
2023-07-24T14:33:15.651Z,8.20
2023-07-24T14:35:42.244Z,8.88
2023-07-24T14:38:08.913Z,7.70
2023-07-24T14:40:35.674Z,7.78
2023-07-24T14:43:04.716Z,6.77
2023-07-24T14:45:33.189Z,8.02
2023-07-24T14:47:59.774Z,6.90
2023-07-24T14:50:26.457Z,6.57
2023-07-24T14:52:53.018Z,5.80
2023-07-24T14:55:19.652Z,6.00
2023-07-24T14:57:46.445Z,5.88
2023-07-24T15:00:13.558Z,15.18
2023-07-24T15:02:40.215Z,13.85
2023-07-24T15:05:07.030Z,5.50
2023-07-24T15:07:33.527Z,5.43
2023-07-24T15:10:00.001Z,4.63
2023-07-24T15:12:26.575Z,5.18
2023-07-24T15:14:53.082Z,7.95
2023-07-24T15:17:20.712Z,6.03
2023-07-24T15:19:47.345Z,6.60
2023-07-24T15:22:13.957Z,5.60
2023-07-24T15:24:43.453Z,9.98
2023-07-24T15:27:10.624Z,8.90
2023-07-24T15:29:38.000Z,10.52
2023-07-24T15:32:05.918Z,5.90
2023-07-24T15:34:32.928Z,5.43
2023-07-24T15:36:59.505Z,5.28
2023-07-24T15:39:26.167Z,4.47
2023-07-24T15:41:52.759Z,6.07
2023-07-24T15:44:19.360Z,3.93
2023-07-24T15:46:48.040Z,3.03
2023-07-24T15:49:15.189Z,6.70
2023-07-24T15:51:41.866Z,3.78
2023-07-24T15:54:11.099Z,5.05
2023-07-24T15:56:39.838Z,4.77
2023-07-24T15:59:06.637Z,13.07
2023-07-24T16:01:33.661Z,6.00
2023-07-24T16:04:00.742Z,5.53
2023-07-24T16:06:27.391Z,4.15
2023-07-24T16:08:54.114Z,3.80
2023-07-24T16:11:20.582Z,4.47
2023-07-24T16:13:47.254Z,9.95
2023-07-24T16:16:15.011Z,7.13
2023-07-24T16:18:42.356Z,8.25
2023-07-24T16:21:08.997Z,7.67
2023-07-24T16:23:35.829Z,7.38
2023-07-24T16:26:02.577Z,8.27
2023-07-24T16:28:29.523Z,6.45
2023-07-24T16:30:58.573Z,3.38
2023-07-24T16:33:25.674Z,3.37
2023-07-24T16:35:52.996Z,3.92
2023-07-24T16:38:19.819Z,3.10
2023-07-24T16:40:46.530Z,2.90
2023-07-24T16:43:13.259Z,3.80
2023-07-24T16:45:40.072Z,3.40
2023-07-24T16:48:07.320Z,5.57
2023-07-24T16:50:36.096Z,3.50
2023-07-24T16:53:03.432Z,2.15
2023-07-24T16:55:30.613Z,2.25
2023-07-24T16:57:57.660Z,2.87
2023-07-24T17:00:24.295Z,2.03
2023-07-24T17:02:50.889Z,2.35
2023-07-24T17:05:17.655Z,2.03
2023-07-24T17:07:44.302Z,3.22
2023-07-24T17:10:11.602Z,2.20
2023-07-24T17:12:38.172Z,2.25
2023-07-24T17:15:05.028Z,2.33
2023-07-24T17:17:31.641Z,3.03
2023-07-24T17:19:58.144Z,2.30
2023-07-24T17:22:24.666Z,2.90
2023-07-24T17:24:51.720Z,2.78
2023-07-24T17:27:18.462Z,3.08
2023-07-24T17:29:45.182Z,3.38
2023-07-24T17:32:13.098Z,2.63
2023-07-24T17:34:40.187Z,2.63
2023-07-24T17:37:06.734Z,5.05
2023-07-24T17:39:33.466Z,3.95
2023-07-24T17:41:59.987Z,3.67
2023-07-24T17:44:26.605Z,3.17
2023-07-24T17:46:53.472Z,4.00
2023-07-24T17:49:20.128Z,3.00
2023-07-24T17:51:46.719Z,3.13
2023-07-24T17:54:13.381Z,2.40
2023-07-24T17:56:40.126Z,3.45
2023-07-24T17:59:06.671Z,4.10
2023-07-24T18:01:35.068Z,2.95
2023-07-24T18:04:01.874Z,2.67
2023-07-24T18:06:28.529Z,2.97
2023-07-24T18:08:55.401Z,2.53
2023-07-24T18:11:21.945Z,3.30
2023-07-24T18:13:48.475Z,3.25
2023-07-24T18:16:17.215Z,2.42
2023-07-24T18:18:44.218Z,2.78
2023-07-24T18:21:10.754Z,2.70
2023-07-24T18:23:37.593Z,2.90
2023-07-24T18:26:04.208Z,2.58
2023-07-24T18:28:30.745Z,2.40
2023-07-24T18:30:57.346Z,2.08
2023-07-24T18:33:23.891Z,2.85
2023-07-24T18:35:53.400Z,2.53
2023-07-24T18:38:21.276Z,3.35
2023-07-24T18:40:48.077Z,2.90
2023-07-24T18:43:14.648Z,2.63
2023-07-24T18:45:41.916Z,2.75
2023-07-24T18:48:10.314Z,2.90
2023-07-24T18:50:36.824Z,2.70
2023-07-24T18:53:03.465Z,2.92
2023-07-24T18:55:30.090Z,2.60
2023-07-24T18:57:56.746Z,3.00
2023-07-24T19:00:23.318Z,2.63
2023-07-24T19:02:49.892Z,2.67
2023-07-24T19:05:16.558Z,2.80
2023-07-24T19:07:43.078Z,3.42
2023-07-24T19:10:11.246Z,2.97
2023-07-24T19:12:40.157Z,4.07
2023-07-24T19:15:09.981Z,2.78
2023-07-24T19:17:41.288Z,3.50
2023-07-24T19:20:10.009Z,3.05
2023-07-24T19:22:36.782Z,3.40
2023-07-24T19:25:03.581Z,3.10
2023-07-24T19:27:30.777Z,2.50
2023-07-24T19:30:02.719Z,3.70
2023-07-24T19:32:32.028Z,3.60
2023-07-24T19:34:58.711Z,3.00
2023-07-24T19:37:25.185Z,3.17
2023-07-24T19:39:51.680Z,3.33
2023-07-24T19:42:18.374Z,4.50
2023-07-24T19:44:44.866Z,3.17
2023-07-24T19:47:11.415Z,3.65
2023-07-24T19:49:41.930Z,2.80
2023-07-24T19:52:09.151Z,3.35
2023-07-24T19:54:36.110Z,3.50
2023-07-24T19:57:02.712Z,2.90
2023-07-24T19:59:29.205Z,3.03
2023-07-24T20:01:57.464Z,3.47
2023-07-24T20:04:24.443Z,3.40
2023-07-24T20:06:50.979Z,3.22
2023-07-24T20:09:17.664Z,3.55
2023-07-24T20:11:46.727Z,3.30
2023-07-24T20:14:14.694Z,3.37
2023-07-24T20:16:41.392Z,3.13
2023-07-24T20:19:08.144Z,3.30
2023-07-24T20:21:34.757Z,2.75
2023-07-24T20:24:13.988Z,3.10
2023-07-24T20:26:41.068Z,3.03
2023-07-24T20:29:07.708Z,3.67
2023-07-24T20:31:34.711Z,3.08
2023-07-24T20:34:01.626Z,3.10
2023-07-24T20:36:28.155Z,3.15
2023-07-24T20:38:54.729Z,3.30
2023-07-24T20:41:21.280Z,3.00
2023-07-24T20:43:47.974Z,3.70
2023-07-24T20:46:16.222Z,2.58
2023-07-24T20:48:43.554Z,3.00
2023-07-24T20:51:18.518Z,3.50
2023-07-24T20:53:45.298Z,3.05
2023-07-24T20:56:12.270Z,2.83
2023-07-24T20:58:38.777Z,3.35
2023-07-24T21:01:07.618Z,3.67
2023-07-24T21:03:34.602Z,3.50
2023-07-24T21:06:01.454Z,3.70
2023-07-24T21:08:28.072Z,4.10
2023-07-24T21:10:55.387Z,4.22
2023-07-24T21:13:22.250Z,3.50
2023-07-24T21:15:51.186Z,3.27
2023-07-24T21:18:18.852Z,2.72
2023-07-24T21:20:47.057Z,3.50
2023-07-24T21:23:15.348Z,3.15
2023-07-24T21:25:55.828Z,2.80
2023-07-24T21:28:23.896Z,4.07
2023-07-24T21:30:51.048Z,3.05
2023-07-24T21:33:18.590Z,3.55
2023-07-24T21:35:45.211Z,3.35
2023-07-24T21:38:13.806Z,3.25
2023-07-24T21:40:41.109Z,4.07
2023-07-24T21:43:08.856Z,2.97
2023-07-24T21:45:35.880Z,3.50
2023-07-24T21:48:06.026Z,2.92
2023-07-24T21:50:32.676Z,3.30
2023-07-24T21:52:59.424Z,3.57
2023-07-24T21:55:26.049Z,3.70
2023-07-24T21:57:52.522Z,4.22
2023-07-24T22:00:19.102Z,3.70
2023-07-24T22:02:45.733Z,3.70
2023-07-24T22:05:12.471Z,3.30
2023-07-24T22:07:38.910Z,4.82
2023-07-24T22:10:05.969Z,3.53
2023-07-24T22:12:33.839Z,3.97
2023-07-24T22:15:00.397Z,3.78
2023-07-24T22:17:28.973Z,3.67
2023-07-24T22:19:56.616Z,4.18
2023-07-24T22:22:23.910Z,3.65
2023-07-24T22:24:50.796Z,3.58
2023-07-24T22:27:17.505Z,4.13
2023-07-24T22:29:44.111Z,3.63
2023-07-24T22:32:10.911Z,3.50
2023-07-24T22:34:37.514Z,3.72
2023-07-24T22:37:04.429Z,3.40
2023-07-24T22:39:31.014Z,3.47
2023-07-24T22:42:00.351Z,4.13
2023-07-24T22:44:26.994Z,4.45
2023-07-24T22:46:53.614Z,4.22
2023-07-24T22:49:20.181Z,3.50
2023-07-24T22:51:46.734Z,3.30
2023-07-24T22:54:13.278Z,3.07
2023-07-24T22:56:44.865Z,3.70
2023-07-24T22:59:25.084Z,3.83
2023-07-24T23:01:56.289Z,3.72
2023-07-24T23:04:25.407Z,4.05
2023-07-24T23:06:53.391Z,4.03
2023-07-24T23:09:19.956Z,4.47
2023-07-24T23:11:46.488Z,3.83
2023-07-24T23:14:13.088Z,3.50
2023-07-24T23:16:39.611Z,4.22
2023-07-24T23:19:06.337Z,3.93
2023-07-24T23:21:33.266Z,4.10
2023-07-24T23:24:00.025Z,3.70
2023-07-24T23:26:26.507Z,4.20
2023-07-24T23:28:54.518Z,4.00
2023-07-24T23:31:21.320Z,3.90
2023-07-24T23:33:47.842Z,4.75
2023-07-24T23:36:14.424Z,4.32
2023-07-24T23:38:40.953Z,3.88
2023-07-24T23:41:08.099Z,4.43
2023-07-24T23:43:34.939Z,4.40
2023-07-24T23:46:01.710Z,3.75
2023-07-24T23:48:28.422Z,4.20
2023-07-24T23:50:54.983Z,4.13
2023-07-24T23:53:21.598Z,4.20
2023-07-24T23:55:48.227Z,4.20
2023-07-24T23:58:14.870Z,3.95
